Huvudsida
METAR-TAF:

METAR-TAF

Flygplatser :

Narathiwat, Thailand

latitud: 6-31-12N, longitud: 101-44-36E, höjd: 5 m

Aktuellt väderrapport

Denna rapport gjordes för 10 timmar och 14 minuter sedan, klockan 11:00 UTC
Vind 6 kt från ost, varierande mellan nordost och ost/sydost
Temperatur 28°C
Fuktighet 74%
Tryck 1011 hPa
Sikt 10 km eller mer
Få moln på en höjd av 2000 ft

METAR: VTSC 221100Z 08006KT 050V110 9999 FEW020 28/23 Q1011 NOSIG

Tid: 04:14 (21:14 UTC)

Väderprognos

Denna rapport gjordes för 4 timmar och 14 minuter sedan, klockan 17:00 UTC
Prognos gäller från 22 kl. 18 UTC till 23 kl. 18 UTC
Vind 5 kt från syd
Sikt 10 km eller mer
Få moln på en höjd av 2000 ft
Blir
från 23 kl. 03 UTC till 23 kl. 05 UTC
Vind 10 kt från ost
Blir
från 23 kl. 15 UTC till 23 kl. 17 UTC
Vind 5 kt från syd

TAF: VTSC 221700Z 2218/2318 19005KT 9999 FEW020 BECMG 2303/2305 08010KT BECMG 2315/2317 19005KT

Aktuella väderrapporter och prognoser från 4000 flygplatser (METAR- och TAF-rapporter).

De tillgängliga stationerna syns som gula och röda prickar på kartan.

För musen över prickarna för att se namnen på stationerna.

Klicka sedan för att få väderrapporter och prognoser.

För att ändra kartan: Klicka på de gröna knapparna med ett svart kors på för att zooma in; den gröna knappen med ett streck på för att zooma ut; eller på de gröna pilarna för angränsande kartor.


METAR-TAF: